Portada
METAR-TAF:

METAR-TAF

Aeroports :

Sanya, Xina

latitud: 18-18N, longitud: 109-24E, altitud: 27 m

Observació

L'informe es va fer fa 1 hora i 3 minuts, a les 10:00 UTC
Vent 8 kt del Sud-Est, variant entre Est/Sud-Est i Sud
Temperatura 28°C
Humitat 79%
Pressió 1008 hPa
Visibilitat 10 km o més
Núvols disperses a una alçada de 2500 ft

METAR: ZJSY 301000Z 14004MPS 110V170 9999 SCT025 28/24 Q1008 NOSIG

Hora: 19:03 (11:03 UTC)

Pronòstic

L'informe es va fer fa 7 hores i 58 minuts, a les 03:05 UTC
Pronòstic vàlid del 30 a les 06 UTC al 31 a les 06 UTC
Vent 8 kt del Est/Sud-Est
Visibilitat 10 km o més
Núvols disperses a una alçada de 2000 ft

TAF: ZJSY 300305Z 3006/3106 12004MPS 9999 SCT020 TX31/3006Z TN25/3021Z

Observacions i pronòstics meteorològics de més de 4000 aeroports (METAR i TAF).

Les estacions disponibles són els punts grocs i vermells al mapa.

Posi el ratolí al punt desitjat per veure el nom de l'estació.

Feu clic per veure les observacions i els pronòstics meteorològics.

Per canviar el mapa: feu clic els botons verds amb una creu de color negre per apropar; al botó verd amb un guió per allunyar la imatge; o en les fletxes verdes per a mapes adjacents.


METAR-TAF: